Time;durP1;ratioP1;P1;durP2;ratioP2;P2;SDS_P1;SDS_P2;PMS_P1;PMS_P2;Temp;Humidity;BMP_temperature;BMP_pressure;BME280_temperature;BME280_humidity;BME280_pressure;Samples;Min_cycle;Max_cycle;Signal;HPM_P1;HPM_P2
2021/08/06 00:00:05;;;;;;;3.27;2.30;;;18.80;99.90;;;;;;5057169;28;20457;-73
2021/08/06 00:02:52;;;;;;;2.50;2.17;;;18.80;99.90;;;;;;5072254;28;20509;-73
2021/08/06 00:05:37;;;;;;;2.63;1.90;;;18.90;99.90;;;;;;5077486;28;20993;-75
2021/08/06 00:08:23;;;;;;;5.50;2.47;;;18.80;99.90;;;;;;5077223;28;20438;-75
2021/08/06 00:11:09;;;;;;;4.63;2.40;;;18.80;99.90;;;;;;5058774;28;20432;-76
2021/08/06 00:13:55;;;;;;;3.00;2.23;;;18.80;99.90;;;;;;5068890;28;20809;-76
2021/08/06 00:16:40;;;;;;;3.60;2.00;;;18.70;99.90;;;;;;5078678;28;20467;-75
2021/08/06 00:19:27;;;;;;;4.60;2.20;;;18.50;99.90;;;;;;5073928;28;20980;-76
2021/08/06 00:22:13;;;;;;;2.87;2.00;;;18.50;99.90;;;;;;5074627;28;20449;-76
2021/08/06 00:24:58;;;;;;;5.20;2.10;;;18.40;99.90;;;;;;5072438;28;20569;-76
2021/08/06 00:27:44;;;;;;;3.00;2.37;;;18.40;99.90;;;;;;5078289;28;20511;-75
2021/08/06 00:30:29;;;;;;;3.17;2.17;;;18.40;99.90;;;;;;5076858;28;20506;-76
2021/08/06 00:33:15;;;;;;;5.47;2.20;;;18.30;99.90;;;;;;5074497;28;20445;-75
2021/08/06 00:36:03;;;;;;;4.43;2.10;;;18.30;99.90;;;;;;5071448;28;20519;-75
2021/08/06 00:38:48;;;;;;;3.60;2.53;;;18.20;99.90;;;;;;5070507;28;20542;-76
2021/08/06 00:41:34;;;;;;;2.80;2.20;;;18.20;99.90;;;;;;5068372;28;20579;-76
2021/08/06 00:44:20;;;;;;;4.90;2.20;;;18.30;99.90;;;;;;5071976;28;20472;-76
2021/08/06 00:47:05;;;;;;;4.10;2.27;;;18.40;99.90;;;;;;5069878;28;20432;-76
2021/08/06 00:49:51;;;;;;;2.40;2.00;;;18.30;99.90;;;;;;5074255;28;20522;-75
2021/08/06 00:52:38;;;;;;;2.90;2.13;;;18.20;99.90;;;;;;5080084;28;20985;-75
2021/08/06 00:55:24;;;;;;;2.20;1.70;;;18.30;99.90;;;;;;5082409;28;20595;-76
2021/08/06 00:58:12;;;;;;;2.60;1.93;;;18.30;99.90;;;;;;5080233;28;20411;-75
2021/08/06 01:00:58;;;;;;;2.67;2.20;;;18.20;99.90;;;;;;5074620;28;20427;-76
2021/08/06 01:03:55;;;;;;;2.70;2.10;;;18.20;99.90;;;;;;5081284;28;20484;-75
2021/08/06 01:06:47;;;;;;;2.40;1.80;;;18.10;99.90;;;;;;5082146;28;20489;-76
2021/08/06 01:09:42;;;;;;;2.93;2.07;;;18.10;99.90;;;;;;5068671;28;21092;-75
2021/08/06 01:12:34;;;;;;;3.33;1.93;;;18.10;99.90;;;;;;5087249;28;20526;-72
2021/08/06 01:15:20;;;;;;;2.60;2.10;;;18.00;99.90;;;;;;5077614;28;20420;-76
2021/08/06 01:18:08;;;;;;;4.03;2.13;;;18.00;99.90;;;;;;5076312;28;20521;-75
2021/08/06 01:20:56;;;;;;;5.50;2.17;;;17.90;99.90;;;;;;5075534;28;20522;-74
2021/08/06 01:23:43;;;;;;;5.10;1.60;;;17.90;99.90;;;;;;5081740;28;20465;-75
2021/08/06 01:26:30;;;;;;;3.60;1.87;;;17.80;99.90;;;;;;5081710;28;20521;-75
2021/08/06 01:29:16;;;;;;;3.50;2.20;;;17.70;99.90;;;;;;5083885;28;20431;-74
2021/08/06 01:32:02;;;;;;;3.87;1.87;;;17.80;99.90;;;;;;5053581;28;20805;-74
2021/08/06 01:34:48;;;;;;;4.30;2.10;;;17.70;99.90;;;;;;5080269;28;20525;-75
2021/08/06 01:37:33;;;;;;;3.63;2.67;;;17.70;99.90;;;;;;5081229;28;20498;-76
2021/08/06 01:40:20;;;;;;;2.50;1.83;;;17.60;99.90;;;;;;5083355;28;20538;-75
2021/08/06 01:43:16;;;;;;;3.87;1.60;;;17.50;99.90;;;;;;5078432;28;20473;-75
2021/08/06 01:46:08;;;;;;;3.20;1.60;;;17.50;99.90;;;;;;5059987;28;20498;-76
2021/08/06 01:48:57;;;;;;;2.40;1.33;;;17.50;99.90;;;;;;5074716;28;20783;-76
2021/08/06 01:51:45;;;;;;;2.60;1.63;;;17.50;99.90;;;;;;5073653;28;20551;-75
2021/08/06 01:54:32;;;;;;;4.10;1.63;;;17.40;99.90;;;;;;5083605;28;20460;-75
2021/08/06 01:57:19;;;;;;;5.20;2.33;;;17.30;99.90;;;;;;5083101;28;20602;-76
2021/08/06 02:00:07;;;;;;;6.20;1.87;;;17.30;99.90;;;;;;5081235;28;20541;-75
2021/08/06 02:02:54;;;;;;;4.67;1.73;;;17.30;99.90;;;;;;5078274;28;20985;-76
2021/08/06 02:05:40;;;;;;;4.30;2.20;;;17.30;99.90;;;;;;5091519;28;20488;-75
2021/08/06 02:08:27;;;;;;;4.57;1.73;;;17.40;99.90;;;;;;5083481;28;20459;-75
2021/08/06 02:11:13;;;;;;;3.13;1.73;;;17.40;99.90;;;;;;5071420;28;20528;-76
2021/08/06 02:13:58;;;;;;;4.83;1.63;;;17.40;99.90;;;;;;5077067;28;20456;-76
2021/08/06 02:16:47;;;;;;;3.03;1.90;;;17.50;99.90;;;;;;5084236;28;20482;-75
2021/08/06 02:19:34;;;;;;;2.07;1.47;;;17.60;99.90;;;;;;5090833;28;20458;-75
2021/08/06 02:22:22;;;;;;;1.80;1.50;;;17.40;99.90;;;;;;5080480;28;20489;-75
2021/08/06 02:25:09;;;;;;;4.60;1.43;;;17.40;99.90;;;;;;5065452;28;20521;-76
2021/08/06 02:27:56;;;;;;;4.00;1.80;;;17.50;99.90;;;;;;5073005;28;20503;-75
2021/08/06 02:30:43;;;;;;;2.90;1.70;;;17.40;99.90;;;;;;5083459;28;20487;-74
2021/08/06 02:33:31;;;;;;;2.67;1.50;;;17.40;99.90;;;;;;5076803;28;20472;-75
2021/08/06 02:36:16;;;;;;;2.13;1.23;;;17.50;99.90;;;;;;5075400;28;20782;-75
2021/08/06 02:39:02;;;;;;;1.90;1.27;;;17.60;99.90;;;;;;5072981;28;20421;-76
2021/08/06 02:41:48;;;;;;;3.63;1.60;;;17.60;99.90;;;;;;5076499;28;20537;-76
2021/08/06 02:44:35;;;;;;;2.77;1.70;;;17.60;99.90;;;;;;5084019;28;20585;-76
2021/08/06 02:47:21;;;;;;;5.47;1.80;;;17.70;99.90;;;;;;5088947;28;20445;-76
2021/08/06 02:50:09;;;;;;;2.13;1.50;;;17.70;99.90;;;;;;5080378;28;20446;-74
2021/08/06 02:52:55;;;;;;;2.80;1.80;;;17.80;99.90;;;;;;5072221;28;20487;-75
2021/08/06 02:55:41;;;;;;;2.40;1.70;;;17.80;99.90;;;;;;5076041;28;20819;-75
2021/08/06 02:58:27;;;;;;;3.97;1.40;;;17.70;99.90;;;;;;5083683;28;20786;-74
2021/08/06 03:01:13;;;;;;;2.20;1.60;;;17.80;99.90;;;;;;5084534;28;20465;-75
2021/08/06 03:03:59;;;;;;;2.80;1.17;;;17.90;99.90;;;;;;5081975;28;20399;-74
2021/08/06 03:06:46;;;;;;;5.00;1.37;;;18.00;99.90;;;;;;5082710;28;20474;-75
2021/08/06 03:09:31;;;;;;;2.80;1.63;;;18.00;99.90;;;;;;5080339;28;21060;-75
2021/08/06 03:12:17;;;;;;;4.40;1.47;;;18.10;99.90;;;;;;5063974;28;20562;-74
2021/08/06 03:15:03;;;;;;;2.60;1.50;;;18.20;99.90;;;;;;5070032;28;21022;-76
2021/08/06 03:17:49;;;;;;;5.67;1.70;;;18.10;99.90;;;;;;5066889;28;20455;-76
2021/08/06 03:20:35;;;;;;;1.90;1.50;;;18.30;99.90;;;;;;5081154;28;20453;-76
2021/08/06 03:23:21;;;;;;;2.40;1.80;;;18.30;99.90;;;;;;5085780;28;20528;-75
2021/08/06 03:26:07;;;;;;;2.57;1.60;;;18.20;99.90;;;;;;5079699;28;20608;-75
2021/08/06 03:28:52;;;;;;;2.63;1.80;;;18.20;99.90;;;;;;5081583;28;20977;-76
2021/08/06 03:31:38;;;;;;;4.30;1.50;;;18.30;99.90;;;;;;5071965;28;21055;-75
2021/08/06 03:34:24;;;;;;;3.53;1.60;;;18.30;99.90;;;;;;5066101;28;20431;-74
2021/08/06 03:37:09;;;;;;;2.23;1.50;;;18.40;99.90;;;;;;5079590;28;20500;-76
2021/08/06 03:39:56;;;;;;;3.27;1.87;;;18.30;99.90;;;;;;5055524;28;20908;-74
2021/08/06 03:42:42;;;;;;;4.67;2.50;;;18.10;99.90;;;;;;5072854;28;20855;-75
2021/08/06 03:45:28;;;;;;;6.63;2.67;;;18.00;99.90;;;;;;5073690;28;20452;-75
2021/08/06 03:48:14;;;;;;;2.50;2.00;;;18.00;99.90;;;;;;5074509;28;21176;-74
2021/08/06 03:50:59;;;;;;;5.57;2.50;;;18.10;99.90;;;;;;5074526;28;20423;-76
2021/08/06 03:53:45;;;;;;;2.33;2.00;;;18.10;99.90;;;;;;5078293;28;20423;-75
2021/08/06 03:56:32;;;;;;;2.90;1.70;;;18.10;99.90;;;;;;5084789;28;20553;-75
2021/08/06 03:59:18;;;;;;;4.13;2.20;;;18.10;99.90;;;;;;5084937;28;20453;-75
2021/08/06 04:02:04;;;;;;;3.50;2.00;;;18.10;99.90;;;;;;5072432;28;20461;-75
2021/08/06 04:04:49;;;;;;;3.33;1.97;;;18.00;99.90;;;;;;5075210;28;20495;-75
2021/08/06 04:07:35;;;;;;;8.53;2.40;;;18.00;99.90;;;;;;5085287;28;21024;-75
2021/08/06 04:10:23;;;;;;;3.67;2.30;;;18.00;99.90;;;;;;5071664;28;20486;-75
2021/08/06 04:13:10;;;;;;;2.57;1.90;;;18.00;99.90;;;;;;5070852;28;20446;-75
2021/08/06 04:15:55;;;;;;;4.40;2.33;;;18.00;99.90;;;;;;5073653;28;20539;-75
2021/08/06 04:18:41;;;;;;;3.23;2.30;;;18.00;99.90;;;;;;5082946;28;20550;-74
2021/08/06 04:21:27;;;;;;;3.53;2.40;;;18.00;99.90;;;;;;5085572;28;20455;-75
2021/08/06 04:24:13;;;;;;;2.20;1.90;;;18.00;99.90;;;;;;5086308;28;20425;-75
2021/08/06 04:26:58;;;;;;;4.43;2.17;;;18.10;99.90;;;;;;5080534;28;20531;-76
2021/08/06 04:29:45;;;;;;;3.80;2.20;;;18.10;99.90;;;;;;5090425;28;20548;-74
2021/08/06 04:32:30;;;;;;;3.93;2.30;;;18.10;99.90;;;;;;5081848;28;20901;-75
2021/08/06 04:35:18;;;;;;;2.80;2.10;;;18.10;99.90;;;;;;5081301;28;20443;-75
2021/08/06 04:38:04;;;;;;;3.63;2.20;;;18.10;99.90;;;;;;5069433;28;20456;-75
2021/08/06 04:40:50;;;;;;;3.80;1.97;;;18.10;99.90;;;;;;5070330;28;20491;-74
2021/08/06 04:43:36;;;;;;;4.07;2.50;;;18.00;99.90;;;;;;5072347;28;20459;-74
2021/08/06 04:46:23;;;;;;;3.90;2.30;;;18.00;99.90;;;;;;5082183;28;20596;-75
2021/08/06 04:49:09;;;;;;;4.97;2.20;;;18.00;99.90;;;;;;5081459;28;20431;-75
2021/08/06 04:51:54;;;;;;;2.60;1.90;;;17.80;99.90;;;;;;5075679;28;20424;-74
2021/08/06 04:54:39;;;;;;;8.00;2.60;;;17.80;99.90;;;;;;5072833;28;20451;-75
2021/08/06 04:57:25;;;;;;;3.40;2.53;;;17.80;99.90;;;;;;5076592;28;20418;-75
2021/08/06 05:00:12;;;;;;;3.50;2.57;;;17.70;99.90;;;;;;5073393;28;20807;-75
2021/08/06 05:02:59;;;;;;;10.53;3.10;;;17.70;99.90;;;;;;5074547;28;20466;-75
2021/08/06 05:05:44;;;;;;;4.63;2.80;;;17.70;99.90;;;;;;5075617;28;20524;-74
2021/08/06 05:08:30;;;;;;;3.57;2.67;;;17.70;99.90;;;;;;5079430;28;20530;-76
2021/08/06 05:11:16;;;;;;;3.83;1.87;;;17.80;99.90;;;;;;5069000;28;20524;-75
2021/08/06 05:14:01;;;;;;;4.43;2.57;;;17.80;99.90;;;;;;5069925;28;21059;-75
2021/08/06 05:16:47;;;;;;;7.20;2.83;;;17.70;99.90;;;;;;5078728;28;21011;-75
2021/08/06 05:19:34;;;;;;;4.03;2.30;;;17.80;99.90;;;;;;5080021;28;20997;-74
2021/08/06 05:22:20;;;;;;;7.13;2.70;;;17.60;99.90;;;;;;5081290;28;20484;-75
2021/08/06 05:25:06;;;;;;;10.80;3.03;;;17.70;99.90;;;;;;5090187;28;20464;-75
2021/08/06 05:27:52;;;;;;;3.73;2.30;;;17.60;99.90;;;;;;5086940;28;20430;-75
2021/08/06 05:30:38;;;;;;;2.83;2.10;;;17.50;99.90;;;;;;5076047;28;20461;-75
2021/08/06 05:33:23;;;;;;;10.90;2.47;;;17.50;99.90;;;;;;5084541;28;21008;-75
2021/08/06 05:36:11;;;;;;;2.60;2.17;;;17.50;99.90;;;;;;5082843;28;20425;-75
2021/08/06 05:38:57;;;;;;;3.57;2.70;;;17.40;99.90;;;;;;5081281;28;20461;-75
2021/08/06 05:41:42;;;;;;;5.13;2.67;;;17.40;99.90;;;;;;5082703;28;20446;-75
2021/08/06 05:44:28;;;;;;;4.23;2.33;;;17.50;99.90;;;;;;5078232;28;20430;-75
2021/08/06 05:47:14;;;;;;;3.57;2.10;;;17.50;99.90;;;;;;5084213;28;20877;-75
2021/08/06 05:49:59;;;;;;;3.90;2.30;;;17.50;99.90;;;;;;5070188;28;20473;-74
2021/08/06 05:52:47;;;;;;;10.03;2.03;;;17.60;99.90;;;;;;5080227;28;20879;-72
2021/08/06 05:55:33;;;;;;;2.97;2.17;;;17.70;99.90;;;;;;5070783;28;20437;-75
2021/08/06 05:58:18;;;;;;;4.17;2.10;;;17.60;99.90;;;;;;5079309;28;20501;-75
2021/08/06 06:01:04;;;;;;;3.00;2.30;;;17.50;99.90;;;;;;5076981;28;21172;-73
2021/08/06 06:03:50;;;;;;;4.37;2.57;;;17.40;99.90;;;;;;5081142;28;21275;-76
2021/08/06 06:06:35;;;;;;;2.60;1.83;;;17.40;99.90;;;;;;5087746;28;21002;-75
2021/08/06 06:09:22;;;;;;;3.53;1.80;;;17.30;99.90;;;;;;5069011;28;20568;-76
2021/08/06 06:12:09;;;;;;;4.77;2.20;;;17.30;99.90;;;;;;5083107;28;20529;-76
2021/08/06 06:14:54;;;;;;;6.67;2.30;;;17.40;99.90;;;;;;5064744;28;20430;-76
2021/08/06 06:17:40;;;;;;;2.50;2.20;;;17.30;99.90;;;;;;5076788;28;20468;-76
2021/08/06 06:20:26;;;;;;;3.40;2.67;;;17.40;99.90;;;;;;5092384;28;20429;-76
2021/08/06 06:23:13;;;;;;;5.23;2.30;;;17.50;99.90;;;;;;5083998;28;20548;-76
2021/08/06 06:26:00;;;;;;;2.80;2.20;;;17.60;99.90;;;;;;5081473;28;21083;-76
2021/08/06 06:28:46;;;;;;;3.03;2.73;;;17.70;99.90;;;;;;5076084;28;20439;-76
2021/08/06 06:31:31;;;;;;;3.50;2.63;;;17.70;99.90;;;;;;5082298;28;20456;-76
2021/08/06 06:34:17;;;;;;;4.63;2.63;;;17.60;99.90;;;;;;5081409;28;20438;-75
2021/08/06 06:37:03;;;;;;;4.77;3.30;;;17.70;99.90;;;;;;5070709;28;20571;-76
2021/08/06 06:39:49;;;;;;;3.80;3.40;;;17.70;99.90;;;;;;5072976;28;20424;-77
2021/08/06 06:42:36;;;;;;;3.70;3.00;;;17.60;99.90;;;;;;5069607;28;20599;-77
2021/08/06 06:45:22;;;;;;;3.57;3.27;;;17.70;99.90;;;;;;5080507;28;20509;-77
2021/08/06 06:48:09;;;;;;;3.43;2.83;;;17.80;99.90;;;;;;5076443;28;20896;-76
2021/08/06 06:50:55;;;;;;;7.93;3.93;;;17.70;99.90;;;;;;5072978;28;20472;-76
2021/08/06 06:53:41;;;;;;;3.30;2.97;;;17.80;99.90;;;;;;5083217;28;20417;-76
2021/08/06 06:56:26;;;;;;;5.40;3.60;;;17.80;99.90;;;;;;5080279;28;20554;-76
2021/08/06 06:59:13;;;;;;;4.43;3.27;;;17.80;99.90;;;;;;5078939;28;20589;-75
2021/08/06 07:01:59;;;;;;;8.03;4.00;;;17.70;99.90;;;;;;5079335;28;20428;-77
2021/08/06 07:04:44;;;;;;;3.23;2.93;;;17.80;99.90;;;;;;5079130;28;20516;-75
2021/08/06 07:07:30;;;;;;;3.57;3.27;;;17.80;99.90;;;;;;5073052;28;20439;-76
2021/08/06 07:10:16;;;;;;;4.60;3.37;;;17.90;99.90;;;;;;5073501;28;20918;-76
2021/08/06 07:13:02;;;;;;;4.27;3.30;;;18.00;99.90;;;;;;5070993;28;20443;-73
2021/08/06 07:15:50;;;;;;;3.87;3.53;;;18.10;99.90;;;;;;5071133;28;20535;-76
2021/08/06 07:18:35;;;;;;;4.50;3.37;;;18.10;99.90;;;;;;5078927;28;20464;-76
2021/08/06 07:21:23;;;;;;;4.63;3.67;;;18.20;99.90;;;;;;5088307;28;20404;-76
2021/08/06 07:24:09;;;;;;;6.90;3.50;;;18.30;99.90;;;;;;5080618;28;20446;-75
2021/08/06 07:26:55;;;;;;;2.83;2.53;;;18.40;99.90;;;;;;5072414;28;21004;-76
2021/08/06 07:29:40;;;;;;;5.23;3.47;;;18.30;99.90;;;;;;5092006;28;20410;-77
2021/08/06 07:32:28;;;;;;;4.93;3.00;;;18.30;99.90;;;;;;5078055;28;20985;-76
2021/08/06 07:35:15;;;;;;;3.20;2.90;;;18.20;99.90;;;;;;5088020;28;20461;-76
2021/08/06 07:38:01;;;;;;;3.50;2.80;;;18.10;99.90;;;;;;5073830;28;20418;-75
2021/08/06 07:40:47;;;;;;;5.80;2.70;;;17.90;99.90;;;;;;5066877;28;20427;-75
2021/08/06 07:43:32;;;;;;;3.50;2.80;;;17.80;99.90;;;;;;5073405;28;20526;-73
2021/08/06 07:46:18;;;;;;;9.50;2.83;;;17.90;99.90;;;;;;5075548;28;20526;-76
2021/08/06 07:49:05;;;;;;;3.00;2.47;;;18.10;99.90;;;;;;5078444;28;20438;-76
2021/08/06 07:51:51;;;;;;;2.33;1.87;;;18.10;99.90;;;;;;5077893;28;20483;-76
2021/08/06 07:54:37;;;;;;;3.50;1.60;;;18.20;99.90;;;;;;5083137;28;20434;-76
2021/08/06 07:57:23;;;;;;;2.33;1.30;;;18.20;99.90;;;;;;5088276;28;20449;-74
2021/08/06 08:00:11;;;;;;;1.90;1.20;;;18.10;99.90;;;;;;5075309;28;20429;-77
2021/08/06 08:02:57;;;;;;;3.00;1.30;;;18.10;99.90;;;;;;5075082;28;20789;-76
2021/08/06 08:05:45;;;;;;;2.80;1.50;;;18.10;99.90;;;;;;5074907;28;20473;-76
2021/08/06 08:08:32;;;;;;;2.73;1.50;;;18.10;99.90;;;;;;5068805;28;20524;-76
2021/08/06 08:11:17;;;;;;;2.47;1.30;;;18.30;99.90;;;;;;5070878;28;20954;-77
2021/08/06 08:14:03;;;;;;;2.80;1.57;;;18.30;99.90;;;;;;5091239;28;20433;-76
2021/08/06 08:16:49;;;;;;;2.63;1.40;;;18.40;99.90;;;;;;5090331;28;20387;-76
2021/08/06 08:19:34;;;;;;;3.83;1.57;;;18.50;99.90;;;;;;5091178;28;20468;-76
2021/08/06 08:22:21;;;;;;;4.17;1.50;;;18.50;99.90;;;;;;5091612;28;20456;-76
2021/08/06 08:25:08;;;;;;;3.27;1.77;;;18.70;99.90;;;;;;5091718;28;20425;-76
2021/08/06 08:27:54;;;;;;;2.27;1.73;;;18.90;99.90;;;;;;5051541;28;20915;-77
2021/08/06 08:30:39;;;;;;;2.23;1.57;;;19.00;99.90;;;;;;5067273;28;20491;-75
2021/08/06 08:33:26;;;;;;;4.53;1.90;;;19.20;99.90;;;;;;5067238;28;21176;-74
2021/08/06 08:36:11;;;;;;;5.53;1.70;;;19.20;99.90;;;;;;5067650;28;20428;-74
2021/08/06 08:38:58;;;;;;;2.30;1.47;;;19.10;99.90;;;;;;5069077;28;20448;-75
2021/08/06 08:41:44;;;;;;;3.57;1.40;;;19.00;99.90;;;;;;5069297;28;20453;-74
2021/08/06 08:44:32;;;;;;;3.83;1.60;;;19.00;99.90;;;;;;5073782;28;20929;-75
2021/08/06 08:47:21;;;;;;;2.97;1.73;;;19.10;99.90;;;;;;5074846;28;20522;-75
2021/08/06 08:50:08;;;;;;;2.57;1.53;;;19.10;99.90;;;;;;5076335;28;20425;-74
2021/08/06 08:52:54;;;;;;;2.67;1.70;;;19.10;99.90;;;;;;5058369;28;20461;-74
2021/08/06 08:55:40;;;;;;;2.60;1.43;;;19.20;99.90;;;;;;5083852;28;20754;-73
2021/08/06 08:58:26;;;;;;;5.57;1.90;;;19.30;99.90;;;;;;5081753;28;20456;-74
2021/08/06 09:01:12;;;;;;;3.27;1.90;;;19.50;99.90;;;;;;5079231;28;20440;-75
2021/08/06 09:03:58;;;;;;;2.77;1.50;;;19.70;99.90;;;;;;5072483;28;20453;-74
2021/08/06 09:06:44;;;;;;;3.57;1.67;;;19.60;99.90;;;;;;5076199;28;20559;-75
2021/08/06 09:09:30;;;;;;;3.40;1.67;;;19.80;99.90;;;;;;5079238;28;20541;-75
2021/08/06 09:12:19;;;;;;;3.77;1.80;;;19.80;99.90;;;;;;5073922;28;20943;-74
2021/08/06 09:15:05;;;;;;;3.20;1.50;;;19.80;99.90;;;;;;5073292;28;20547;-74
2021/08/06 09:17:51;;;;;;;4.73;1.73;;;19.70;99.90;;;;;;5074902;28;20448;-74
2021/08/06 09:20:40;;;;;;;6.57;1.57;;;19.90;99.90;;;;;;5087651;28;20427;-74
2021/08/06 09:23:47;;;;;;;3.93;1.93;;;20.10;99.90;;;;;;5087919;22;20490;-74
2021/08/06 09:26:42;;;;;;;3.73;1.90;;;20.00;99.90;;;;;;5070665;28;20462;-74
2021/08/06 09:29:29;;;;;;;2.57;1.77;;;20.00;99.90;;;;;;5065546;28;20445;-75
2021/08/06 09:32:15;;;;;;;2.67;1.77;;;20.20;99.90;;;;;;5072289;28;20508;-75
2021/08/06 09:35:00;;;;;;;7.53;1.77;;;20.30;99.90;;;;;;5050014;28;20430;-75
2021/08/06 09:37:46;;;;;;;2.57;1.47;;;20.40;99.90;;;;;;5054261;28;20467;-75
2021/08/06 09:40:36;;;;;;;3.83;1.33;;;20.40;99.90;;;;;;5053721;28;20506;-74
2021/08/06 09:43:22;;;;;;;5.70;2.37;;;20.40;99.90;;;;;;5053585;28;20444;-74
2021/08/06 09:46:27;;;;;;;4.10;1.77;;;20.40;99.90;;;;;;5053424;28;20871;-74
2021/08/06 09:49:13;;;;;;;4.77;1.53;;;20.30;99.90;;;;;;5053640;28;20401;-72
2021/08/06 09:51:59;;;;;;;4.27;1.70;;;20.30;99.90;;;;;;5052493;28;20429;-73
2021/08/06 09:54:50;;;;;;;5.23;1.60;;;20.10;99.90;;;;;;5053068;28;20456;-73
2021/08/06 09:57:36;;;;;;;5.60;1.50;;;20.00;99.90;;;;;;5053819;28;20467;-74
2021/08/06 10:00:24;;;;;;;3.60;1.90;;;19.90;99.90;;;;;;5053605;28;20881;-73
2021/08/06 10:03:25;;;;;;;5.73;2.00;;;19.80;99.90;;;;;;5053608;28;20442;-74
2021/08/06 10:06:12;;;;;;;3.73;2.00;;;19.80;99.90;;;;;;5052844;28;20430;-73
2021/08/06 10:08:57;;;;;;;3.63;1.87;;;19.70;99.90;;;;;;5051822;28;21096;-73
2021/08/06 10:11:43;;;;;;;4.10;2.20;;;19.50;99.90;;;;;;5054151;28;20484;-73
2021/08/06 10:14:28;;;;;;;2.77;1.40;;;19.50;99.90;;;;;;5052415;28;20446;-72
2021/08/06 10:17:14;;;;;;;3.63;1.53;;;19.30;99.90;;;;;;5051832;28;20418;-72
2021/08/06 10:20:01;;;;;;;2.40;1.43;;;19.30;99.90;;;;;;5052035;28;20544;-72
2021/08/06 10:22:47;;;;;;;2.90;1.40;;;19.10;99.90;;;;;;5049154;28;20816;-73
2021/08/06 10:25:33;;;;;;;5.70;1.70;;;19.10;99.90;;;;;;5051704;28;20463;-73
2021/08/06 10:28:20;;;;;;;5.13;1.70;;;19.30;99.90;;;;;;5052795;28;20477;-73
2021/08/06 10:31:19;;;;;;;3.13;1.27;;;19.50;99.90;;;;;;5053066;28;20540;-74
2021/08/06 10:34:07;;;;;;;8.40;1.93;;;19.80;99.90;;;;;;5050640;28;20475;-74
2021/08/06 10:36:54;;;;;;;2.13;1.40;;;19.90;99.90;;;;;;5052038;28;20485;-74
2021/08/06 10:39:44;;;;;;;3.80;1.43;;;19.90;99.90;;;;;;5057213;28;20424;-73
2021/08/06 10:42:31;;;;;;;2.97;1.40;;;20.10;99.90;;;;;;5052554;28;20406;-74
2021/08/06 10:45:16;;;;;;;2.30;1.17;;;20.30;99.90;;;;;;5052365;28;20419;-74
2021/08/06 10:48:02;;;;;;;2.20;1.10;;;20.40;99.90;;;;;;5051307;28;20811;-74
2021/08/06 10:51:27;;;;;;;2.50;1.37;;;20.80;99.90;;;;;;5052349;28;20406;-74
2021/08/06 10:54:32;;;;;;;3.63;1.20;;;21.10;99.90;;;;;;5052273;28;20455;-74
2021/08/06 10:57:28;;;;;;;1.93;1.10;;;21.30;99.90;;;;;;5052553;28;20409;-73
2021/08/06 11:00:34;;;;;;;5.07;1.30;;;21.20;99.90;;;;;;5052530;28;20534;-74
2021/08/06 11:03:35;;;;;;;2.47;1.30;;;21.10;99.90;;;;;;5051936;28;20425;-74
2021/08/06 11:06:34;;;;;;;4.10;1.57;;;21.10;99.90;;;;;;5041887;28;20421;-75
2021/08/06 11:09:42;;;;;;;2.70;1.20;;;21.10;99.90;;;;;;5044210;28;20473;-72
2021/08/06 11:12:32;;;;;;;2.07;1.30;;;21.00;99.90;;;;;;5049574;28;21018;-73
2021/08/06 11:15:18;;;;;;;3.20;1.30;;;21.10;99.90;;;;;;5050869;28;20430;-72
2021/08/06 11:18:03;;;;;;;4.13;1.20;;;21.30;99.90;;;;;;5043496;28;20412;-73
2021/08/06 11:20:55;;;;;;;3.70;1.40;;;21.30;99.90;;;;;;5051106;28;21060;-73
2021/08/06 11:23:41;;;;;;;3.77;1.70;;;21.30;99.90;;;;;;5050616;28;20807;-73
2021/08/06 11:26:28;;;;;;;2.20;1.40;;;21.20;99.90;;;;;;5046974;28;20505;-73
2021/08/06 11:29:14;;;;;;;3.97;1.43;;;21.10;99.90;;;;;;5051141;28;20971;-73
2021/08/06 11:32:02;;;;;;;3.10;1.40;;;21.00;99.90;;;;;;5041969;28;20437;-73
2021/08/06 11:34:53;;;;;;;3.30;1.27;;;20.90;99.90;;;;;;5051285;28;20440;-73
2021/08/06 11:37:48;;;;;;;4.10;1.60;;;21.10;99.90;;;;;;5043996;28;20459;-72
2021/08/06 11:40:35;;;;;;;4.70;1.40;;;21.30;99.90;;;;;;5049487;28;20441;-73
2021/08/06 11:43:24;;;;;;;3.10;1.50;;;21.30;99.90;;;;;;5049042;28;20602;-73
2021/08/06 11:46:12;;;;;;;2.17;1.10;;;21.50;99.90;;;;;;5045667;28;20430;-73
2021/08/06 11:49:00;;;;;;;4.70;1.37;;;21.70;99.90;;;;;;5049692;28;21155;-73
2021/08/06 11:51:48;;;;;;;2.37;1.20;;;22.00;99.90;;;;;;5050698;28;21068;-73
2021/08/06 11:54:33;;;;;;;3.17;1.10;;;21.90;99.90;;;;;;5049382;28;20453;-73
2021/08/06 11:57:21;;;;;;;3.37;1.30;;;21.80;99.90;;;;;;5045307;28;20454;-72
2021/08/06 12:00:20;;;;;;;3.17;1.00;;;21.80;99.90;;;;;;5048940;28;20415;-73
2021/08/06 12:03:14;;;;;;;4.60;1.60;;;21.80;99.90;;;;;;5051200;28;20402;-73
2021/08/06 12:06:00;;;;;;;3.70;1.13;;;21.80;99.90;;;;;;5041127;28;20498;-73
2021/08/06 12:08:47;;;;;;;2.03;1.07;;;21.90;99.90;;;;;;5047200;28;20480;-73
2021/08/06 12:11:44;;;;;;;1.70;1.00;;;21.70;99.90;;;;;;5048486;28;20420;-72
2021/08/06 12:14:30;;;;;;;2.57;1.03;;;21.70;99.90;;;;;;5042345;28;20453;-71
2021/08/06 12:17:21;;;;;;;4.50;1.17;;;21.70;99.90;;;;;;5037016;28;20416;-73
2021/08/06 12:20:07;;;;;;;5.37;1.30;;;21.80;99.90;;;;;;5040327;28;20464;-73
2021/08/06 12:22:53;;;;;;;5.90;1.47;;;21.90;99.90;;;;;;5049881;28;20966;-73
2021/08/06 12:25:39;;;;;;;5.50;1.47;;;21.90;99.90;;;;;;5041837;28;20886;-73
2021/08/06 12:28:24;;;;;;;2.63;0.97;;;21.90;99.90;;;;;;5041652;28;20467;-73
2021/08/06 12:31:16;;;;;;;3.37;1.60;;;22.00;99.90;;;;;;5047714;28;20481;-73
2021/08/06 12:34:07;;;;;;;4.10;1.20;;;22.00;99.90;;;;;;5048705;28;20468;-73
2021/08/06 12:36:55;;;;;;;4.57;1.10;;;21.60;99.90;;;;;;5051601;28;20383;-73
2021/08/06 12:39:51;;;;;;;6.20;1.17;;;21.40;99.90;;;;;;5054143;28;20490;-73
2021/08/06 12:42:37;;;;;;;3.83;0.93;;;21.20;99.90;;;;;;5054286;28;20517;-73
2021/08/06 12:45:23;;;;;;;2.40;0.93;;;21.00;99.90;;;;;;5048999;28;20471;-73
2021/08/06 12:48:08;;;;;;;1.73;0.80;;;20.80;99.90;;;;;;5050587;28;20449;-73
2021/08/06 12:50:55;;;;;;;3.77;1.13;;;20.70;99.90;;;;;;5050028;28;20435;-73
2021/08/06 12:53:41;;;;;;;3.20;2.50;;;20.70;99.90;;;;;;5052427;28;20583;-73
2021/08/06 12:56:27;;;;;;;5.20;1.50;;;20.80;99.90;;;;;;5053442;28;20429;-73
2021/08/06 12:59:19;;;;;;;3.20;1.17;;;20.90;99.90;;;;;;5050910;28;20425;-72
2021/08/06 13:02:21;;;;;;;3.30;1.30;;;21.00;99.90;;;;;;5046375;28;20427;-72
2021/08/06 13:05:08;;;;;;;4.30;1.60;;;21.10;99.90;;;;;;5053748;28;20455;-73
2021/08/06 13:07:56;;;;;;;5.63;1.43;;;21.30;99.90;;;;;;5038398;28;20467;-73
2021/08/06 13:10:42;;;;;;;6.13;1.00;;;21.50;99.90;;;;;;5058086;28;20464;-73
2021/08/06 13:13:29;;;;;;;2.83;1.27;;;21.50;99.90;;;;;;5044562;28;20538;-73
2021/08/06 13:16:17;;;;;;;6.53;1.20;;;21.50;99.90;;;;;;5053554;28;20492;-73
2021/08/06 13:19:02;;;;;;;2.63;1.23;;;21.50;99.90;;;;;;5054126;28;20401;-73
2021/08/06 13:21:58;;;;;;;4.07;1.47;;;21.40;99.90;;;;;;5054076;28;20455;-73
2021/08/06 13:24:47;;;;;;;2.30;1.00;;;21.40;99.90;;;;;;5048672;28;20964;-72
2021/08/06 13:27:33;;;;;;;2.90;1.17;;;21.50;99.90;;;;;;5050999;28;20944;-73
2021/08/06 13:30:19;;;;;;;3.53;1.20;;;21.40;99.90;;;;;;5053956;28;20434;-73
2021/08/06 13:33:04;;;;;;;4.20;1.10;;;21.50;99.90;;;;;;5053285;28;20979;-73
2021/08/06 13:35:52;;;;;;;2.83;1.20;;;21.50;99.90;;;;;;5053972;28;20562;-73
2021/08/06 13:38:37;;;;;;;3.07;1.10;;;21.50;99.90;;;;;;5053678;28;20586;-73
2021/08/06 13:41:24;;;;;;;3.03;0.90;;;21.70;99.90;;;;;;5048903;28;20429;-73
2021/08/06 13:44:10;;;;;;;2.77;1.20;;;21.90;99.90;;;;;;5053065;28;20506;-72
2021/08/06 13:46:56;;;;;;;6.47;1.20;;;22.10;99.90;;;;;;5042929;28;20452;-73
2021/08/06 13:49:42;;;;;;;2.53;1.00;;;22.00;99.90;;;;;;5050257;28;20481;-72
2021/08/06 13:52:28;;;;;;;3.23;1.30;;;22.30;99.90;;;;;;5050413;28;20416;-73
2021/08/06 13:55:13;;;;;;;3.93;1.23;;;22.50;99.90;;;;;;5052650;28;20416;-74
2021/08/06 13:58:00;;;;;;;3.30;0.90;;;22.50;99.90;;;;;;5052591;28;20440;-75
2021/08/06 14:00:46;;;;;;;4.13;1.47;;;22.50;99.90;;;;;;5048774;28;20456;-74
2021/08/06 14:03:32;;;;;;;2.37;1.17;;;22.30;98.60;;;;;;5050758;28;20988;-74
2021/08/06 14:06:18;;;;;;;1.77;0.87;;;22.20;99.00;;;;;;5053098;28;20419;-74
2021/08/06 14:09:03;;;;;;;2.87;1.40;;;22.10;99.70;;;;;;5053994;28;20476;-74
2021/08/06 14:11:50;;;;;;;2.77;1.13;;;22.00;98.80;;;;;;5044181;28;20452;-74
2021/08/06 14:14:37;;;;;;;2.30;1.20;;;22.00;99.70;;;;;;5052997;28;20501;-74
2021/08/06 14:17:23;;;;;;;1.93;1.13;;;22.00;94.70;;;;;;5049922;28;20415;-72
2021/08/06 14:20:11;;;;;;;2.40;1.43;;;22.10;94.90;;;;;;5052097;28;20823;-73
2021/08/06 14:22:56;;;;;;;2.70;1.23;;;21.90;94.60;;;;;;5045548;28;20442;-73
2021/08/06 14:25:42;;;;;;;3.53;1.53;;;21.80;93.00;;;;;;5052214;28;20427;-73
2021/08/06 14:28:27;;;;;;;2.07;1.07;;;21.80;93.30;;;;;;5052833;28;20438;-73